Time;durP1;ratioP1;P1;durP2;ratioP2;P2;SDS_P1;SDS_P2;PMS_P1;PMS_P2;Temp;Humidity;BMP_temperature;BMP_pressure;BME280_temperature;BME280_humidity;BME280_pressure;Samples;Min_cycle;Max_cycle;Signal;HPM_P1;HPM_P2
2022/04/18 00:00:37;;;;;;;6.75;3.10;;;;;;;8.41;86.02;102360.53;10230073;28;20125;-65
2022/04/18 00:05:34;;;;;;;6.97;3.30;;;;;;;8.33;84.72;102360.16;10217010;28;20103;-64
2022/04/18 00:10:30;;;;;;;7.65;3.58;;;;;;;8.26;88.07;102360.38;10229635;28;20049;-64
2022/04/18 00:15:27;;;;;;;6.85;3.53;;;;;;;8.15;89.87;102354.06;10219063;28;20133;-64
2022/04/18 00:20:23;;;;;;;8.50;3.60;;;;;;;8.12;88.82;102354.59;10149801;28;20121;-64
2022/04/18 00:25:20;;;;;;;6.40;3.47;;;;;;;8.01;94.31;102350.16;10201850;28;20137;-64
2022/04/18 00:30:16;;;;;;;6.32;3.70;;;;;;;7.94;92.52;102346.81;10211656;28;20077;-64
2022/04/18 00:35:13;;;;;;;5.97;3.05;;;;;;;7.83;93.66;102339.66;10201710;28;20049;-64
2022/04/18 00:40:11;;;;;;;7.68;3.70;;;;;;;7.75;92.90;102336.31;10206137;28;20050;-64
2022/04/18 00:45:08;;;;;;;6.45;3.55;;;;;;;7.74;94.95;102331.94;10201482;28;20148;-64
2022/04/18 00:50:05;;;;;;;8.15;3.30;;;;;;;7.72;98.28;102334.09;10200582;28;20046;-64
2022/04/18 00:55:02;;;;;;;9.43;3.88;;;;;;;7.73;98.91;102335.75;10196090;28;20074;-64
2022/04/18 00:59:59;;;;;;;6.75;3.30;;;;;;;7.74;98.32;102331.13;10185598;28;20219;-64
2022/04/18 01:10:05;;;;;;;7.35;3.63;;;;;;;7.55;100.00;102312.44;10314662;23;20598;-64
2022/04/18 01:15:02;;;;;;;6.43;3.42;;;;;;;7.52;100.00;102312.97;10168091;28;20576;-63
2022/04/18 01:19:59;;;;;;;7.72;3.45;;;;;;;7.36;100.00;102309.28;10152297;28;20085;-63
2022/04/18 01:30:14;;;;;;;7.68;3.78;;;;;;;7.28;100.00;102300.75;10123775;28;20086;-63
2022/04/18 01:35:10;;;;;;;6.85;3.63;;;;;;;7.22;100.00;102297.16;10125778;28;20129;-63
2022/04/18 01:40:07;;;;;;;7.88;4.15;;;;;;;7.14;100.00;102286.75;10115168;28;20062;-63
2022/04/18 01:45:05;;;;;;;9.52;4.03;;;;;;;7.08;100.00;102285.06;10115258;28;20054;-64
2022/04/18 01:50:01;;;;;;;7.35;3.90;;;;;;;7.00;100.00;102294.47;10149631;28;20082;-63
2022/04/18 01:54:58;;;;;;;8.00;4.13;;;;;;;6.94;100.00;102288.16;10142737;28;20722;-63
2022/04/18 01:59:54;;;;;;;7.38;4.00;;;;;;;6.89;100.00;102285.41;10150181;28;20086;-63
2022/04/18 02:04:51;;;;;;;8.38;4.13;;;;;;;6.81;100.00;102277.69;10142848;28;20138;-63
2022/04/18 02:09:47;;;;;;;9.38;3.83;;;;;;;6.73;100.00;102275.44;10113664;28;20508;-63
2022/04/18 02:14:44;;;;;;;8.13;4.35;;;;;;;6.66;100.00;102272.06;10120793;28;20086;-62
2022/04/18 02:19:40;;;;;;;12.00;4.70;;;;;;;6.62;100.00;102265.50;10146978;28;20133;-63
2022/04/18 02:24:37;;;;;;;9.57;4.30;;;;;;;6.57;100.00;102257.25;10119166;28;20051;-62
2022/04/18 02:29:33;;;;;;;9.52;3.97;;;;;;;6.57;100.00;102246.38;10120332;28;20081;-63
2022/04/18 02:34:30;;;;;;;10.73;4.22;;;;;;;6.53;100.00;102236.03;10113723;28;20081;-63
2022/04/18 02:39:26;;;;;;;7.85;4.28;;;;;;;6.49;100.00;102242.22;10146987;28;20079;-63
2022/04/18 02:44:23;;;;;;;8.35;4.80;;;;;;;6.42;100.00;102238.88;10113316;28;20086;-63
2022/04/18 02:49:20;;;;;;;7.32;4.25;;;;;;;6.36;100.00;102240.72;10150989;28;20047;-63
2022/04/18 02:54:16;;;;;;;10.38;4.70;;;;;;;6.32;100.00;102239.56;10127653;28;20113;-62
2022/04/18 02:59:13;;;;;;;10.27;4.88;;;;;;;6.22;100.00;102228.56;10128943;28;20134;-64
2022/04/18 03:04:09;;;;;;;8.25;4.32;;;;;;;6.19;100.00;102234.50;10147903;28;20085;-62
2022/04/18 03:09:06;;;;;;;8.90;4.45;;;;;;;6.12;100.00;102218.38;10113525;28;20579;-63
2022/04/18 03:14:02;;;;;;;9.48;4.57;;;;;;;6.04;100.00;102211.50;10115897;28;20751;-63
2022/04/18 03:18:59;;;;;;;10.82;4.63;;;;;;;5.97;100.00;102221.72;10146697;28;20050;-63
2022/04/18 03:23:56;;;;;;;11.00;5.28;;;;;;;5.87;100.00;102214.22;10154375;28;20046;-63
2022/04/18 03:28:52;;;;;;;8.75;4.63;;;;;;;5.83;100.00;102214.97;10150319;28;20133;-63
2022/04/18 03:33:48;;;;;;;10.13;4.82;;;;;;;5.84;100.00;102211.19;10127390;28;20142;-63
2022/04/18 03:44:11;;;;;;;8.45;4.32;;;;;;;5.75;100.00;102212.69;10089186;28;20594;-63
2022/04/18 03:49:08;;;;;;;8.95;4.40;;;;;;;5.71;100.00;102212.38;10110062;28;20511;-63
2022/04/18 03:54:04;;;;;;;8.95;4.63;;;;;;;5.68;100.00;102212.84;10115272;28;20081;-63
2022/04/18 03:59:01;;;;;;;10.35;4.80;;;;;;;5.64;100.00;102215.25;10147280;28;20408;-63
2022/04/18 04:03:57;;;;;;;11.80;6.07;;;;;;;5.56;100.00;102202.09;10138821;28;20082;-62
2022/04/18 04:08:54;;;;;;;10.98;4.95;;;;;;;5.60;100.00;102195.09;10147395;28;20054;-62
2022/04/18 04:13:50;;;;;;;8.98;5.28;;;;;;;5.54;100.00;102185.22;10117112;28;20101;-63
2022/04/18 04:18:49;;;;;;;9.88;5.25;;;;;;;5.48;100.00;102170.78;10139052;28;20206;-63
2022/04/18 04:23:46;;;;;;;10.88;4.97;;;;;;;5.43;100.00;102178.00;10111731;28;20074;-63
2022/04/18 04:28:42;;;;;;;10.77;5.28;;;;;;;5.39;100.00;102169.53;10132425;28;20137;-63
2022/04/18 04:33:39;;;;;;;11.60;5.82;;;;;;;5.41;100.00;102170.13;10113977;28;20161;-63
2022/04/18 04:38:36;;;;;;;8.98;5.45;;;;;;;5.41;100.00;102172.03;10137295;28;20546;-63
2022/04/18 04:43:32;;;;;;;10.65;5.25;;;;;;;5.37;100.00;102157.31;10117920;28;20097;-63
2022/04/18 04:48:29;;;;;;;10.98;5.40;;;;;;;5.32;100.00;102170.78;10154164;28;20050;-63
2022/04/18 04:53:25;;;;;;;11.40;6.00;;;;;;;5.32;100.00;102174.31;10131476;28;20161;-63
2022/04/18 04:58:22;;;;;;;12.20;5.55;;;;;;;5.31;100.00;102171.84;10146558;28;20050;-63
2022/04/18 05:03:18;;;;;;;7.90;4.95;;;;;;;5.29;100.00;102161.22;10135025;28;20150;-63
2022/04/18 05:08:15;;;;;;;9.13;5.63;;;;;;;5.34;100.00;102165.91;10115523;28;20101;-64
2022/04/18 05:13:11;;;;;;;11.30;6.78;;;;;;;5.32;100.00;102166.19;10116506;28;20051;-63
2022/04/18 05:18:08;;;;;;;10.23;6.00;;;;;;;5.31;100.00;102169.13;10125991;28;20090;-63
2022/04/18 05:23:04;;;;;;;10.25;5.70;;;;;;;5.38;100.00;102161.66;10116462;28;20126;-63
2022/04/18 05:28:01;;;;;;;11.32;5.55;;;;;;;5.38;100.00;102165.16;10125431;28;20085;-63
2022/04/18 05:32:57;;;;;;;10.00;5.88;;;;;;;5.42;100.00;102160.09;10130976;28;20051;-63
2022/04/18 05:37:54;;;;;;;12.77;6.65;;;;;;;5.54;100.00;102163.53;10114643;28;20067;-63
2022/04/18 05:42:51;;;;;;;10.20;6.03;;;;;;;5.56;100.00;102166.81;10114223;28;20130;-63
2022/04/18 05:47:47;;;;;;;10.63;6.22;;;;;;;5.66;100.00;102172.41;10143803;28;20162;-63
2022/04/18 05:52:44;;;;;;;10.32;6.10;;;;;;;5.75;100.00;102164.63;10125836;28;20882;-63
2022/04/18 05:57:40;;;;;;;12.27;6.53;;;;;;;5.87;100.00;102161.81;10113987;28;20157;-63
2022/04/18 06:02:37;;;;;;;12.98;6.05;;;;;;;5.95;100.00;102175.00;10115413;28;20043;-63
2022/04/18 06:07:42;;;;;;;12.65;6.60;;;;;;;6.09;100.00;102176.28;10135469;28;20497;-64
2022/04/18 06:12:39;;;;;;;12.18;7.55;;;;;;;6.28;100.00;102173.25;10114117;28;20835;-63
2022/04/18 06:17:35;;;;;;;13.35;6.68;;;;;;;6.41;100.00;102172.03;10147825;28;20074;-63
2022/04/18 06:22:32;;;;;;;12.25;6.47;;;;;;;6.59;100.00;102184.47;10154359;28;20050;-63
2022/04/18 06:27:28;;;;;;;13.48;7.70;;;;;;;6.66;100.00;102182.34;10116598;28;20050;-63
2022/04/18 06:32:25;;;;;;;9.93;6.25;;;;;;;6.71;100.00;102175.09;10113821;28;20128;-63
2022/04/18 06:37:21;;;;;;;12.63;6.28;;;;;;;6.85;100.00;102178.22;10134717;28;20058;-63
2022/04/18 06:42:18;;;;;;;10.73;7.35;;;;;;;6.92;100.00;102184.28;10134422;28;20517;-63
2022/04/18 06:47:15;;;;;;;11.35;6.43;;;;;;;7.10;100.00;102174.94;10124359;28;20043;-64
2022/04/18 06:52:11;;;;;;;11.25;6.15;;;;;;;7.21;100.00;102170.38;10113054;28;20101;-63
2022/04/18 06:57:08;;;;;;;12.77;6.70;;;;;;;7.43;100.00;102180.38;10140096;28;20042;-63
2022/04/18 07:02:04;;;;;;;11.02;6.30;;;;;;;7.59;100.00;102171.22;10113811;28;20126;-64
2022/04/18 07:07:01;;;;;;;11.38;6.15;;;;;;;7.78;100.00;102180.59;10138246;28;20054;-63
2022/04/18 07:11:57;;;;;;;10.05;5.97;;;;;;;8.05;100.00;102185.06;10133677;28;20129;-63
2022/04/18 07:16:54;;;;;;;10.85;6.13;;;;;;;8.27;100.00;102181.38;10115199;28;20063;-63
2022/04/18 07:21:50;;;;;;;12.70;6.30;;;;;;;8.46;100.00;102179.03;10111633;28;20066;-63
2022/04/18 07:26:47;;;;;;;11.25;6.72;;;;;;;8.58;100.00;102176.88;10110601;28;20089;-62
2022/04/18 07:31:43;;;;;;;11.40;7.28;;;;;;;8.72;100.00;102177.19;10111265;28;20082;-63
2022/04/18 07:36:40;;;;;;;11.88;6.80;;;;;;;8.88;100.00;102187.03;10114690;28;20047;-63
2022/04/18 07:41:36;;;;;;;10.10;6.32;;;;;;;9.01;100.00;102191.97;10141392;28;20070;-63
2022/04/18 07:46:33;;;;;;;12.85;6.60;;;;;;;9.13;100.00;102188.16;10109782;28;20055;-63
2022/04/18 07:51:34;;;;;;;13.65;7.22;;;;;;;9.28;97.58;102185.41;10109678;28;20062;-63
2022/04/18 07:56:31;;;;;;;10.25;6.20;;;;;;;9.41;95.30;102173.94;10129119;28;20465;-64
2022/04/18 08:01:27;;;;;;;10.27;5.93;;;;;;;9.57;95.57;102173.94;10114828;28;20129;-63
2022/04/18 08:06:24;;;;;;;11.02;6.72;;;;;;;9.78;96.00;102172.81;10107782;28;20509;-63
2022/04/18 08:11:21;;;;;;;10.57;6.20;;;;;;;9.97;94.91;102158.53;10109333;28;20137;-62
2022/04/18 08:16:18;;;;;;;10.82;6.50;;;;;;;10.15;94.94;102157.13;10108453;28;20082;-63
2022/04/18 08:21:17;;;;;;;11.95;5.93;;;;;;;10.31;94.32;102162.25;10109591;28;20049;-62
2022/04/18 08:26:14;;;;;;;12.55;7.18;;;;;;;10.49;91.17;102165.47;10121367;28;20042;-63
2022/04/18 08:31:11;;;;;;;12.65;7.00;;;;;;;10.60;89.01;102167.03;10149081;28;20050;-63
2022/04/18 08:36:08;;;;;;;12.43;6.45;;;;;;;10.75;88.02;102174.34;10127828;28;20081;-63
2022/04/18 08:41:07;;;;;;;12.60;6.82;;;;;;;10.89;90.47;102164.38;10117167;28;20102;-63
2022/04/18 08:46:07;;;;;;;12.77;7.07;;;;;;;11.06;86.05;102163.16;10108324;28;20038;-63
2022/04/18 08:56:22;;;;;;;13.77;7.00;;;;;;;11.46;85.25;102155.69;10107262;28;20051;-64
2022/04/18 09:01:18;;;;;;;12.75;7.43;;;;;;;11.69;88.30;102149.44;10110180;28;20679;-62
2022/04/18 09:06:15;;;;;;;13.63;6.88;;;;;;;11.89;82.07;102147.63;10107801;28;20130;-63
2022/04/18 09:11:29;;;;;;;11.98;6.72;;;;;;;12.05;77.75;102145.53;10128891;28;20101;-63
2022/04/18 09:16:30;;;;;;;11.23;6.40;;;;;;;12.26;82.90;102141.41;10120026;28;20101;-63
2022/04/18 09:21:27;;;;;;;9.98;6.57;;;;;;;12.31;68.45;102140.53;10148400;28;20558;-63
2022/04/18 09:26:24;;;;;;;12.30;6.75;;;;;;;12.56;72.84;102129.19;10139112;28;20077;-63
2022/04/18 09:31:21;;;;;;;12.90;6.80;;;;;;;12.81;73.22;102122.50;10166606;28;20492;-64
2022/04/18 09:36:19;;;;;;;11.32;6.57;;;;;;;13.06;72.32;102114.94;10133035;28;20042;-64
2022/04/18 09:41:21;;;;;;;13.73;6.28;;;;;;;13.41;67.99;102105.31;10155478;28;20042;-63
2022/04/18 09:46:18;;;;;;;8.50;5.50;;;;;;;13.69;64.50;102099.81;10142858;28;20636;-64
2022/04/18 09:51:26;;;;;;;12.02;6.40;;;;;;;14.05;61.10;102102.66;10155438;28;20101;-64
2022/04/18 09:56:24;;;;;;;10.20;6.20;;;;;;;14.69;57.17;102096.28;10113918;28;20051;-64
2022/04/18 10:01:22;;;;;;;8.88;5.55;;;;;;;15.69;59.34;102076.59;10115177;28;20093;-63
2022/04/18 10:06:20;;;;;;;8.95;5.97;;;;;;;16.75;54.21;102083.84;10117430;28;20047;-64
2022/04/18 10:11:17;;;;;;;10.68;5.93;;;;;;;17.41;46.03;102078.03;10114282;28;20047;-63
2022/04/18 10:16:14;;;;;;;10.82;5.55;;;;;;;18.56;40.68;102072.28;10119193;28;20043;-63
2022/04/18 10:21:17;;;;;;;8.85;5.47;;;;;;;19.30;40.77;102066.97;10114663;28;20497;-63
2022/04/18 10:26:35;;;;;;;8.82;5.40;;;;;;;20.37;37.28;102064.81;10117579;28;20089;-63
2022/04/18 10:31:34;;;;;;;9.27;4.45;;;;;;;20.44;37.03;102063.41;10150037;28;20579;-63
2022/04/18 10:36:33;;;;;;;7.45;4.22;;;;;;;20.66;33.52;102056.53;10128713;28;20051;-63
2022/04/18 10:41:36;;;;;;;8.27;5.20;;;;;;;21.38;32.87;102048.09;10142956;28;20507;-63
2022/04/18 10:46:33;;;;;;;7.47;4.63;;;;;;;21.69;31.93;102038.91;10137959;28;20133;-64
2022/04/18 10:51:40;;;;;;;6.75;4.30;;;;;;;22.25;35.03;102037.75;10152900;28;20427;-64
2022/04/18 10:56:57;;;;;;;6.28;3.55;;;;;;;22.13;30.48;102033.13;10131778;28;20137;-64
2022/04/18 11:01:59;;;;;;;6.40;3.78;;;;;;;21.62;29.20;102024.81;10127837;28;20143;-64
2022/04/18 11:07:04;;;;;;;7.45;4.28;;;;;;;22.06;29.75;102025.41;10116499;28;20050;-63
2022/04/18 11:12:15;;;;;;;7.18;3.78;;;;;;;22.23;28.76;102023.38;10112857;28;20078;-64
2022/04/18 11:17:12;;;;;;;8.43;4.95;;;;;;;22.95;28.48;102010.81;10122975;28;20125;-62
2022/04/18 11:22:17;;;;;;;7.93;4.28;;;;;;;23.36;28.25;102008.34;10151336;28;20074;-64
2022/04/18 11:27:20;;;;;;;8.60;4.90;;;;;;;22.84;27.21;102008.66;10110272;28;20145;-63
2022/04/18 11:32:18;;;;;;;9.13;3.92;;;;;;;23.31;28.15;102004.69;10125317;28;20151;-65
2022/04/18 11:37:26;;;;;;;7.63;4.57;;;;;;;23.11;27.60;101989.22;10134982;28;20078;-61
2022/04/18 11:42:28;;;;;;;9.50;4.65;;;;;;;22.69;26.88;101990.06;10111478;28;20070;-62
2022/04/18 11:47:29;;;;;;;7.60;4.20;;;;;;;23.37;27.63;101984.84;10128436;28;20108;-62
2022/04/18 11:52:27;;;;;;;7.15;3.85;;;;;;;23.08;27.04;101976.03;10111097;28;20505;-61
2022/04/18 11:57:25;;;;;;;6.18;3.58;;;;;;;23.34;26.69;101968.84;10139624;28;20141;-62
2022/04/18 12:07:47;;;;;;;5.63;3.53;;;;;;;24.21;27.83;101954.88;10125022;28;20046;-62
2022/04/18 12:12:44;;;;;;;7.68;3.72;;;;;;;24.08;29.28;101943.94;10110401;28;20141;-63
2022/04/18 12:17:40;;;;;;;6.75;3.63;;;;;;;23.47;26.61;101940.34;10114077;28;20413;-62
2022/04/18 12:22:37;;;;;;;9.02;2.83;;;;;;;24.33;31.17;101940.63;10110557;28;20097;-62
2022/04/18 12:27:38;;;;;;;6.07;2.83;;;;;;;24.59;26.84;101930.53;10136828;28;20656;-62
2022/04/18 12:32:38;;;;;;;5.18;2.92;;;;;;;24.36;27.43;101929.47;10126323;28;20043;-63
2022/04/18 12:37:35;;;;;;;4.47;2.45;;;;;;;23.62;31.57;101924.59;10128877;28;20085;-64
2022/04/18 12:42:31;;;;;;;4.93;2.60;;;;;;;23.34;26.83;101927.00;10126182;28;20393;-64
2022/04/18 12:47:32;;;;;;;5.90;2.10;;;;;;;23.40;28.43;101908.75;10125557;28;20638;-61
2022/04/18 12:52:29;;;;;;;8.45;2.95;;;;;;;23.72;26.26;101901.59;10119945;28;20500;-63
2022/04/18 12:57:30;;;;;;;5.00;2.42;;;;;;;23.62;30.95;101890.28;10119959;28;20109;-63
2022/04/18 13:02:27;;;;;;;4.27;2.13;;;;;;;23.84;28.67;101903.38;10112699;28;20458;-63
2022/04/18 13:07:23;;;;;;;8.98;1.90;;;;;;;23.38;32.43;101880.41;10124063;28;20051;-62
2022/04/18 13:12:30;;;;;;;6.22;2.30;;;;;;;23.40;28.54;101884.44;10122143;28;20784;-63
2022/04/18 13:17:35;;;;;;;4.43;1.98;;;;;;;23.55;31.67;101874.25;10126399;28;20550;-63
2022/04/18 13:22:31;;;;;;;4.80;2.33;;;;;;;23.08;27.58;101868.03;10139907;28;20042;-64
2022/04/18 13:27:28;;;;;;;6.30;2.50;;;;;;;22.73;27.75;101862.69;10131356;28;20480;-63
2022/04/18 13:32:25;;;;;;;4.47;2.20;;;;;;;22.50;28.67;101847.97;10116454;28;20070;-64
2022/04/18 13:37:22;;;;;;;4.93;1.90;;;;;;;22.19;29.80;101849.81;10139291;28;20145;-64
2022/04/18 13:42:21;;;;;;;5.82;2.03;;;;;;;22.43;28.76;101838.31;10131231;28;20046;-64
2022/04/18 13:47:17;;;;;;;5.20;2.20;;;;;;;22.48;28.00;101838.00;10151522;28;20070;-64
2022/04/18 13:52:14;;;;;;;5.82;1.75;;;;;;;23.07;32.78;101832.97;10115820;28;20054;-64
2022/04/18 13:57:10;;;;;;;3.42;1.73;;;;;;;23.29;32.11;101827.69;10127846;28;20154;-64
2022/04/18 14:02:08;;;;;;;3.60;1.70;;;;;;;23.57;28.27;101829.22;10115967;28;20126;-64
2022/04/18 14:07:05;;;;;;;3.83;1.63;;;;;;;23.73;29.03;101819.44;10121361;28;20054;-64
2022/04/18 14:12:01;;;;;;;3.70;1.48;;;;;;;23.67;28.96;101818.19;10115848;28;20467;-64
2022/04/18 14:22:14;;;;;;;4.97;1.90;;;;;;;22.99;29.41;101808.13;10120776;28;20042;-63
2022/04/18 14:27:10;;;;;;;3.58;1.58;;;;;;;22.94;28.44;101803.66;10141528;28;20054;-64
2022/04/18 14:32:07;;;;;;;3.50;1.40;;;;;;;22.75;33.56;101793.44;10144752;28;20042;-65
2022/04/18 14:37:04;;;;;;;5.60;1.42;;;;;;;22.48;29.19;101796.19;10130754;28;20046;-65
2022/04/18 14:42:00;;;;;;;4.85;2.10;;;;;;;22.13;29.53;101792.78;10128734;28;20049;-64
2022/04/18 14:46:57;;;;;;;3.40;1.17;;;;;;;21.94;34.89;101777.75;10119714;28;20105;-64
2022/04/18 14:51:53;;;;;;;3.80;1.50;;;;;;;21.78;30.68;101782.63;10134182;28;20046;-63
2022/04/18 14:56:50;;;;;;;3.10;1.27;;;;;;;21.61;35.42;101781.09;10114058;28;20054;-63
2022/04/18 15:01:47;;;;;;;3.63;1.60;;;;;;;21.93;32.50;101776.16;10122563;28;20624;-63
2022/04/18 15:06:44;;;;;;;4.18;1.67;;;;;;;22.21;29.96;101775.03;10119089;28;20138;-63
2022/04/18 15:11:43;;;;;;;5.32;1.77;;;;;;;21.89;28.69;101761.34;10114126;28;20484;-63
2022/04/18 15:16:42;;;;;;;3.17;1.30;;;;;;;21.81;34.19;101767.94;10109238;28;20093;-63
2022/04/18 15:21:39;;;;;;;5.25;1.58;;;;;;;22.11;37.83;101756.94;10110852;28;20090;-63
2022/04/18 15:26:36;;;;;;;3.17;1.50;;;;;;;22.22;32.11;101762.72;10123091;28;20046;-63
2022/04/18 15:36:47;;;;;;;3.25;1.40;;;;;;;22.68;36.72;101754.31;10127793;28;20456;-63
2022/04/18 15:41:44;;;;;;;3.50;1.50;;;;;;;22.45;30.44;101752.38;10150485;28;20117;-63
2022/04/18 15:46:40;;;;;;;4.38;2.00;;;;;;;22.52;32.62;101750.88;10144632;28;20057;-63
2022/04/18 15:51:37;;;;;;;3.15;1.40;;;;;;;22.72;34.00;101744.00;10149263;28;20042;-63
2022/04/18 15:56:33;;;;;;;3.47;1.60;;;;;;;23.10;31.33;101739.34;10136314;28;20039;-62
2022/04/18 16:01:35;;;;;;;3.53;1.30;;;;;;;23.29;29.16;101750.34;10110231;28;20061;-62
2022/04/18 16:06:37;;;;;;;6.93;1.40;;;;;;;23.40;27.81;101744.09;10114321;28;20057;-61
2022/04/18 16:11:35;;;;;;;8.43;2.00;;;;;;;23.65;33.38;101739.59;10112524;28;20078;-62
2022/04/18 16:16:32;;;;;;;5.65;1.98;;;;;;;23.69;29.92;101739.63;10128440;28;20096;-63
2022/04/18 16:21:29;;;;;;;4.22;1.67;;;;;;;23.76;27.50;101728.53;10120611;28;20051;-63
2022/04/18 16:26:26;;;;;;;3.50;1.80;;;;;;;24.03;27.51;101737.56;10114432;28;20612;-63
2022/04/18 16:36:38;;;;;;;4.18;2.00;;;;;;;23.70;28.05;101714.13;10126996;28;20054;-63
2022/04/18 16:46:49;;;;;;;4.90;1.95;;;;;;;24.57;28.04;101704.44;10135442;28;20141;-63
2022/04/18 16:51:46;;;;;;;5.00;2.08;;;;;;;24.50;28.80;101710.81;10117869;28;20051;-63
2022/04/18 16:56:42;;;;;;;5.00;2.40;;;;;;;23.89;30.58;101710.31;10130601;28;20136;-61
2022/04/18 17:01:39;;;;;;;6.03;2.28;;;;;;;23.78;30.06;101703.03;10156839;28;20081;-63
2022/04/18 17:06:35;;;;;;;6.15;2.80;;;;;;;23.19;29.22;101700.81;10125780;28;20109;-62
2022/04/18 17:11:32;;;;;;;6.80;3.10;;;;;;;22.41;33.15;101701.34;10116764;28;20493;-62
2022/04/18 17:16:29;;;;;;;7.82;3.97;;;;;;;21.78;31.51;101711.03;10134361;28;20089;-62
2022/04/18 17:21:26;;;;;;;7.95;3.97;;;;;;;20.92;32.94;101705.78;10152813;28;20109;-63
2022/04/18 17:26:22;;;;;;;7.50;3.83;;;;;;;20.65;35.06;101702.81;10126845;28;20077;-63
2022/04/18 17:31:19;;;;;;;9.30;4.10;;;;;;;20.28;36.24;101705.88;10143080;28;20051;-62
2022/04/18 17:36:15;;;;;;;10.45;4.97;;;;;;;19.94;39.16;101705.47;10126114;28;20097;-63
2022/04/18 17:41:12;;;;;;;10.95;5.20;;;;;;;19.67;58.71;101709.09;10142406;28;20512;-62
2022/04/18 17:46:09;;;;;;;11.90;6.22;;;;;;;19.20;49.96;101718.91;10128327;28;20472;-62
2022/04/18 17:51:05;;;;;;;11.50;5.22;;;;;;;18.93;53.82;101712.97;10115039;28;20489;-62
2022/04/18 17:56:02;;;;;;;12.07;5.43;;;;;;;18.63;53.18;101715.22;10127923;28;20081;-62
2022/04/18 18:00:59;;;;;;;12.75;6.10;;;;;;;18.32;55.51;101728.88;10115336;28;20074;-62
2022/04/18 18:05:56;;;;;;;10.52;5.18;;;;;;;17.93;80.85;101722.84;10124754;28;20084;-64
2022/04/18 18:10:53;;;;;;;11.20;5.57;;;;;;;17.53;65.25;101731.72;10115121;28;20115;-63
2022/04/18 18:15:54;;;;;;;11.77;5.10;;;;;;;17.33;56.07;101727.81;10116887;28;20552;-63
2022/04/18 18:20:51;;;;;;;10.05;4.50;;;;;;;17.11;52.46;101726.25;10138637;28;20065;-61
2022/04/18 18:25:47;;;;;;;9.90;4.30;;;;;;;16.92;50.86;101730.28;10140726;28;20074;-62
2022/04/18 18:30:44;;;;;;;10.57;4.47;;;;;;;16.62;57.04;101735.81;10168340;28;20125;-62
2022/04/18 18:35:44;;;;;;;7.53;3.45;;;;;;;16.52;58.96;101738.94;10122070;28;20074;-63
2022/04/18 18:40:41;;;;;;;9.60;3.85;;;;;;;16.31;50.70;101738.09;10134502;28;20082;-62
2022/04/18 18:45:38;;;;;;;7.40;3.17;;;;;;;16.20;50.20;101738.47;10141801;28;20489;-62
2022/04/18 18:55:50;;;;;;;5.60;2.88;;;;;;;15.90;47.32;101750.59;10118680;28;20138;-62
2022/04/18 19:00:47;;;;;;;9.88;3.45;;;;;;;15.65;46.57;101750.28;10119524;28;20132;-62
2022/04/18 19:05:43;;;;;;;6.88;2.88;;;;;;;15.58;45.45;101750.78;10118996;28;20074;-62
2022/04/18 19:10:40;;;;;;;7.20;3.42;;;;;;;15.45;49.13;101750.94;10115055;28;20097;-62
2022/04/18 19:15:39;;;;;;;8.43;3.70;;;;;;;15.36;46.83;101754.53;10122694;28;20046;-62
2022/04/18 19:31:06;;;;;;;8.43;3.58;;;;;;;14.82;57.57;101751.25;10122926;28;20074;-62
2022/04/18 19:36:03;;;;;;;8.63;3.90;;;;;;;14.81;76.28;101744.13;10135268;28;20051;-60
2022/04/18 19:41:00;;;;;;;6.18;3.28;;;;;;;14.68;59.40;101745.88;10126942;28;20124;-65
2022/04/18 19:45:56;;;;;;;7.25;2.90;;;;;;;14.31;53.82;101741.69;10124852;28;20134;-61
2022/04/18 19:50:53;;;;;;;6.78;3.13;;;;;;;14.22;59.35;101743.59;10121089;28;20101;-61
2022/04/18 19:55:51;;;;;;;6.38;2.50;;;;;;;14.28;63.34;101745.09;10131247;28;20101;-61
2022/04/18 20:00:48;;;;;;;7.38;2.65;;;;;;;14.01;54.02;101752.41;10132349;28;20604;-64
2022/04/18 20:05:45;;;;;;;8.65;2.60;;;;;;;13.92;56.00;101748.78;10128213;28;20062;-64
2022/04/18 20:10:42;;;;;;;6.75;2.58;;;;;;;13.99;55.90;101751.09;10149765;28;20054;-64
2022/04/18 20:15:41;;;;;;;6.25;2.38;;;;;;;13.80;56.47;101740.34;10146514;28;20484;-64
2022/04/18 20:20:39;;;;;;;6.20;2.65;;;;;;;13.70;55.24;101733.16;10139384;28;20074;-64
2022/04/18 20:25:36;;;;;;;6.80;2.25;;;;;;;13.35;55.85;101729.38;10138967;28;20575;-64
2022/04/18 20:30:33;;;;;;;7.88;2.10;;;;;;;13.30;56.84;101729.47;10117977;28;20116;-67
2022/04/18 20:35:31;;;;;;;5.93;2.40;;;;;;;13.25;58.67;101727.63;10132814;28;20053;-64
2022/04/18 20:40:28;;;;;;;6.85;2.47;;;;;;;13.17;57.33;101731.16;10119715;28;20113;-65
2022/04/18 20:45:24;;;;;;;8.13;2.65;;;;;;;13.14;58.48;101732.56;10119936;28;20062;-65
2022/04/18 20:50:23;;;;;;;5.15;2.03;;;;;;;13.02;58.80;101741.38;10129248;28;20055;-65
2022/04/18 21:00:34;;;;;;;5.93;2.05;;;;;;;12.79;59.41;101732.25;10112398;28;20098;-63
2022/04/18 21:05:31;;;;;;;4.97;2.00;;;;;;;12.75;58.54;101725.75;10129147;28;20149;-63
2022/04/18 21:10:27;;;;;;;5.95;2.15;;;;;;;12.71;59.78;101730.22;10151432;28;20071;-63
2022/04/18 21:15:25;;;;;;;7.10;2.47;;;;;;;12.60;61.93;101728.81;10144910;28;20054;-66
2022/04/18 21:20:22;;;;;;;6.88;2.28;;;;;;;12.54;62.01;101733.63;10146980;28;20085;-65
2022/04/18 21:25:19;;;;;;;5.93;1.95;;;;;;;12.42;64.06;101739.63;10143461;28;20050;-65
2022/04/18 21:30:16;;;;;;;4.20;1.80;;;;;;;12.33;62.31;101735.97;10130200;28;20059;-66
2022/04/18 21:35:12;;;;;;;5.20;1.85;;;;;;;12.28;65.65;101733.31;10131935;28;20924;-64
2022/04/18 21:40:09;;;;;;;4.25;1.70;;;;;;;12.09;67.64;101740.81;10117318;28;20078;-64
2022/04/18 21:45:06;;;;;;;3.53;1.67;;;;;;;11.96;66.96;101737.75;10117543;28;20050;-64
2022/04/18 21:50:04;;;;;;;4.40;1.88;;;;;;;11.88;67.64;101730.25;10123107;28;20129;-64
2022/04/18 21:55:04;;;;;;;6.30;2.10;;;;;;;11.74;70.83;101729.34;10124618;28;20101;-64
2022/04/18 22:00:07;;;;;;;6.28;2.13;;;;;;;11.61;69.18;101735.63;10152549;28;20086;-64
2022/04/18 22:05:04;;;;;;;4.78;1.80;;;;;;;11.58;73.90;101748.00;10144969;28;20046;-65
2022/04/18 22:10:00;;;;;;;6.15;2.08;;;;;;;11.35;74.51;101733.31;10148405;28;20058;-64
2022/04/18 22:14:57;;;;;;;5.68;1.92;;;;;;;11.34;72.06;101737.16;10134557;28;20093;-63
2022/04/18 22:25:08;;;;;;;3.80;1.45;;;;;;;11.21;73.85;101727.78;10114715;28;20528;-65
2022/04/18 22:30:07;;;;;;;5.00;1.63;;;;;;;11.14;73.97;101717.19;10115258;28;20133;-65
2022/04/18 22:35:05;;;;;;;4.80;1.70;;;;;;;11.05;75.89;101724.44;10130017;28;20054;-64
2022/04/18 22:40:04;;;;;;;4.18;1.67;;;;;;;10.97;77.58;101722.38;10140011;28;20097;-65
2022/04/18 22:45:00;;;;;;;3.15;1.50;;;;;;;10.86;80.11;101715.41;10122580;28;20050;-65
2022/04/18 22:49:57;;;;;;;4.78;1.92;;;;;;;10.74;81.21;101708.47;10132723;28;20055;-62
2022/04/18 22:54:54;;;;;;;4.65;1.55;;;;;;;10.59;80.07;101705.94;10113874;28;20089;-62
2022/04/18 22:59:50;;;;;;;4.43;1.75;;;;;;;10.47;83.38;101706.38;10113439;28;20055;-62
2022/04/18 23:10:11;;;;;;;4.47;1.75;;;;;;;10.35;84.41;101695.03;10119190;28;20062;-64
2022/04/18 23:15:09;;;;;;;3.45;1.45;;;;;;;10.21;84.56;101692.19;10122032;28;20081;-65
2022/04/18 23:20:08;;;;;;;3.97;1.50;;;;;;;10.12;87.04;101693.91;10120491;28;20628;-65
2022/04/18 23:25:07;;;;;;;3.42;1.42;;;;;;;10.06;90.21;101692.34;10128410;28;20133;-64
2022/04/18 23:30:08;;;;;;;4.22;1.48;;;;;;;9.93;90.38;101679.38;10145564;28;20177;-64
2022/04/18 23:35:08;;;;;;;4.68;1.38;;;;;;;9.83;92.60;101683.84;10145547;28;20105;-65
2022/04/18 23:45:20;;;;;;;4.90;1.80;;;;;;;9.61;92.88;101675.34;10143345;28;20050;-62
2022/04/18 23:55:32;;;;;;;3.90;1.50;;;;;;;9.53;95.18;101676.75;10135971;28;20059;-64
